Time;durP1;ratioP1;P1;durP2;ratioP2;P2;SDS_P1;SDS_P2;PMS_P1;PMS_P2;Temp;Humidity;BMP_temperature;BMP_pressure;BME280_temperature;BME280_humidity;BME280_pressure;Samples;Min_cycle;Max_cycle;Signal;HPM_P1;HPM_P2
2022/08/23 00:00:31;;;;;;;5.63;2.83;;;23.30;74.80;;;;;;6079303;23;20030;-91
2022/08/23 00:06:57;;;;;;;5.35;2.80;;;23.10;75.00;;;;;;6221838;23;20047;-90
2022/08/23 00:09:52;;;;;;;6.18;2.95;;;23.10;75.10;;;;;;6219664;23;20001;-90
2022/08/23 00:15:50;;;;;;;;;;;;;;;;;;;;;
2022/08/23 00:18:51;;;;;;;;;;;;;;;;;;;;;
2022/08/23 00:22:03;;;;;;;;;;;;;;;;;;;;;
2022/08/23 00:24:45;;;;;;;8.00;4.43;;;22.80;75.90;;;;;;6126717;23;19991;-91
2022/08/23 00:28:15;;;;;;;;;;;;;;;;;;;;;
2022/08/23 00:31:21;;;;;;;;;;;;;;;;;;;;;
2022/08/23 00:34:24;;;;;;;7.80;4.30;;;22.80;76.30;;;;;;6090323;23;20006;-91
2022/08/23 00:37:10;;;;;;;6.70;3.88;;;22.70;76.30;;;;;;6084682;23;20042;-90
2022/08/23 00:40:35;;;;;;;;;;;;;;;;;;;;;
2022/08/23 00:49:51;;;;;;;9.05;4.55;;;22.80;76.10;;;;;;6126313;23;20058;-89
2022/08/23 00:53:05;;;;;;;;;;;22.80;76.20;;;;;;6125353;23;20002;-90
2022/08/23 00:56:07;;;;;;;;;;;;;;;;;;;;;
2022/08/23 00:58:46;;;;;;;;;;;;;;;;;;;;;
2022/08/23 01:01:43;;;;;;;7.35;4.15;;;22.70;76.50;;;;;;6167454;23;20084;-91
2022/08/23 01:08:18;;;;;;;;;;;;;;;;;;;;;
2022/08/23 01:11:25;;;;;;;5.90;3.50;;;22.60;76.90;;;;;;6122581;23;20062;-89
2022/08/23 01:14:17;;;;;;;6.70;4.10;;;22.60;77.00;;;;;;6131521;23;20034;-90
2022/08/23 01:20:31;;;;;;;;;;;;;;;;;;;;;
2022/08/23 01:23:57;;;;;;;;;;;;;;;;;;;;;
2022/08/23 01:30:26;;;;;;;6.15;3.80;;;22.50;78.10;;;;;;6112061;23;20012;-91
2022/08/23 01:33:52;;;;;;;;;;;;;;;;;;;;;
2022/08/23 01:36:27;;;;;;;6.40;3.72;;;22.40;78.70;;;;;;6138992;23;20014;-90
2022/08/23 01:39:44;;;;;;;7.55;3.45;;;22.30;79.00;;;;;;6109684;22;20058;-89
2022/08/23 01:43:25;;;;;;;;;;;;;;;;;;;;;
2022/08/23 01:50:08;;;;;;;;;;;;;;;;;;;;;
2022/08/23 01:53:10;;;;;;;;;;;;;;;;;;;;;
2022/08/23 01:56:44;;;;;;;6.65;3.78;;;22.00;80.00;;;;;;6157242;23;20097;-89
2022/08/23 01:59:47;;;;;;;7.88;3.50;;;22.00;80.50;;;;;;6152927;23;20009;-90
2022/08/23 02:06:46;;;;;;;;;;;;;;;;;;;;;
2022/08/23 02:09:14;;;;;;;7.63;3.85;;;21.90;80.80;;;;;;6143626;23;20081;-91
2022/08/23 02:12:32;;;;;;;4.60;3.45;;;21.80;80.90;;;;;;6134099;23;20013;-89
2022/08/23 02:21:43;;;;;;;6.55;4.03;;;21.80;81.20;;;;;;6178078;23;20014;-90
2022/08/23 02:25:07;;;;;;;;;;;;;;;;;;;;;
2022/08/23 02:27:56;;;;;;;;;;;;;;;;;;;;;
2022/08/23 02:30:47;;;;;;;5.47;3.97;;;21.70;81.70;;;;;;6157150;23;19990;-90
2022/08/23 02:33:45;;;;;;;;;;;;;;;;;;;;;
2022/08/23 02:40:40;;;;;;;;;;;;;;;;;;;;;
2022/08/23 02:43:20;;;;;;;6.32;4.18;;;21.50;82.30;;;;;;6138580;23;20014;-90
2022/08/23 02:45:52;;;;;;;8.60;4.72;;;21.50;82.40;;;;;;6137382;23;20014;-89
2022/08/23 02:48:31;;;;;;;6.85;4.35;;;21.50;82.40;;;;;;6133814;23;20006;-89
2022/08/23 02:51:21;;;;;;;;;;;;;;;;;;;;;
2022/08/23 03:00:43;;;;;;;7.32;4.55;;;21.40;83.20;;;;;;6180241;23;20012;-90
2022/08/23 03:03:36;;;;;;;5.53;4.03;;;21.30;82.80;;;;;;6156619;23;20008;-91
2022/08/23 03:06:38;;;;;;;8.80;4.47;;;21.30;82.80;;;;;;6157528;22;20016;-90
2022/08/23 03:09:42;;;;;;;;;;;;;;;;;;;;;
2022/08/23 03:12:45;;;;;;;;;;;;;;;;;;;;;
2022/08/23 03:19:33;;;;;;;;;;;;;;;;;;;;;
2022/08/23 03:22:13;;;;;;;9.45;5.05;;;21.10;83.40;;;;;;6159675;22;20423;-90
2022/08/23 03:25:17;;;;;;;;;;;;;;;;;;;;;
2022/08/23 03:28:42;;;;;;;;;;;;;;;;;;;;;
2022/08/23 03:31:39;;;;;;;;;;;;;;;;;;;;;
2022/08/23 03:37:36;;;;;;;;;;;;;;;;;;;;;
2022/08/23 03:46:33;;;;;;;5.30;3.92;;;20.90;83.70;;;;;;6243874;23;20048;-89
2022/08/23 03:49:30;;;;;;;5.95;3.72;;;20.90;83.90;;;;;;6242068;23;20044;-88
2022/08/23 03:52:18;;;;;;;;;;;;;;;;;;;;;
2022/08/23 03:55:00;;;;;;;;;;;;;;;;;;;;;
2022/08/23 03:58:02;;;;;;;6.20;4.43;;;20.80;84.60;;;;;;6130365;23;20030;-90
2022/08/23 04:00:56;;;;;;;;;;;;;;;;;;;;;
2022/08/23 04:07:12;;;;;;;7.50;4.65;;;20.80;85.00;;;;;;6103446;23;20021;-88
2022/08/23 04:10:40;;;;;;;8.00;4.50;;;20.70;85.10;;;;;;6130965;23;20011;-89
2022/08/23 04:13:27;;;;;;;6.05;4.43;;;20.70;85.30;;;;;;6127583;23;20507;-90
2022/08/23 04:16:08;;;;;;;;;;;;;;;;;;;;;
2022/08/23 04:19:06;;;;;;;7.28;4.50;;;20.70;85.30;;;;;;6129497;23;20022;-89
2022/08/23 04:22:09;;;;;;;7.32;4.63;;;20.70;85.40;;;;;;6132354;23;19994;-92
2022/08/23 04:25:14;;;;;;;;;;;;;;;;;;;;;
2022/08/23 04:34:31;;;;;;;;;;;;;;;;;;;;;
2022/08/23 04:37:27;;;;;;;9.48;5.40;;;20.50;86.10;;;;;;6141741;23;20022;-93
2022/08/23 04:50:50;;;;;;;6.20;5.18;;;20.50;87.10;;;;;;6088163;23;20031;-92
2022/08/23 04:53:52;;;;;;;;;;;;;;;;;;;;;
2022/08/23 04:57:28;;;;;;;8.38;6.00;;;20.60;87.60;;;;;;6013989;23;20019;-91
2022/08/23 05:00:48;;;;;;;;;;;;;;;;;;;;;
2022/08/23 05:04:11;;;;;;;;;;;;;;;;;;;;;
2022/08/23 05:07:14;;;;;;;7.72;5.75;;;20.40;88.40;;;;;;6000387;23;20272;-91
2022/08/23 05:09:58;;;;;;;;;;;;;;;;;;;;;
2022/08/23 05:13:21;;;;;;;7.25;5.60;;;20.50;88.60;;;;;;6053804;23;20033;-92
2022/08/23 05:16:41;;;;;;;8.30;5.38;;;20.50;88.50;;;;;;6074190;23;20023;-91
2022/08/23 05:19:50;;;;;;;;;;;;;;;;;;;;;
2022/08/23 05:26:20;;;;;;;;;;;;;;;;;;;;;
2022/08/23 05:29:55;;;;;;;;;;;;;;;;;;;;;
2022/08/23 05:32:52;;;;;;;;;;;;;;;;;;;;;
2022/08/23 05:36:04;;;;;;;;;;;;;;;;;;;;;
2022/08/23 05:39:57;;;;;;;7.72;5.50;;;20.70;89.40;;;;;;6116216;23;20454;-90
2022/08/23 05:49:07;;;;;;;8.95;6.60;;;20.90;89.50;;;;;;6117454;23;20010;-90
2022/08/23 05:55:23;;;;;;;8.85;6.22;;;21.00;89.20;;;;;;6139582;23;20072;-91
2022/08/23 05:58:15;;;;;;;8.85;7.15;;;21.10;89.00;;;;;;6104892;23;20486;-90
2022/08/23 06:01:31;;;;;;;10.77;7.30;;;21.20;88.80;;;;;;6109605;23;20029;-90
2022/08/23 06:04:34;;;;;;;8.15;6.57;;;21.20;88.50;;;;;;6117680;23;20002;-91
2022/08/23 06:07:22;;;;;;;;;;;;;;;;;;;;;
2022/08/23 06:10:41;;;;;;;;;;;;;;;;;;;;;
2022/08/23 06:14:08;;;;;;;6.50;5.70;;;21.40;88.10;;;;;;6108637;23;20305;-90
2022/08/23 06:17:15;;;;;;;;;;;;;;;;;;;;;
2022/08/23 06:20:21;;;;;;;;;;;;;;;;;;;;;
2022/08/23 06:23:41;;;;;;;;;;;;;;;;;;;;;
2022/08/23 06:26:54;;;;;;;8.37;5.43;;;21.70;87.70;;;;;;6150417;23;19994;-91
2022/08/23 06:29:52;;;;;;;;;;;;;;;;;;;;;
2022/08/23 06:33:09;;;;;;;;;;;;;;;;;;;;;
2022/08/23 06:35:52;;;;;;;;;;;;;;;;;;;;;
2022/08/23 06:41:54;;;;;;;;;;;;;;;;;;;;;
2022/08/23 06:44:58;;;;;;;;;;;;;;;;;;;;;
2022/08/23 06:47:39;;;;;;;8.13;5.97;;;22.30;87.50;;;;;;6093045;23;20037;-90
2022/08/23 06:50:08;;;;;;;9.50;5.95;;;22.40;87.30;;;;;;6070568;23;20031;-89
2022/08/23 06:53:05;;;;;;;8.90;6.10;;;22.50;87.00;;;;;;6094792;23;20003;-90
2022/08/23 06:56:28;;;;;;;6.35;4.80;;;22.60;86.70;;;;;;6066068;23;20267;-89
2022/08/23 07:02:14;;;;;;;8.23;5.75;;;22.80;86.20;;;;;;6071025;23;20455;-91
2022/08/23 07:05:18;;;;;;;5.30;4.68;;;22.90;86.40;;;;;;6070235;23;20003;-89
2022/08/23 07:11:53;;;;;;;7.97;5.45;;;23.10;85.80;;;;;;6070773;23;20068;-92
2022/08/23 07:14:35;;;;;;;;;;;;;;;;;;;;;
2022/08/23 07:17:38;;;;;;;6.65;5.30;;;23.20;85.80;;;;;;6066740;23;20031;-91
2022/08/23 07:20:48;;;;;;;;;;;;;;;;;;;;;
2022/08/23 07:23:46;;;;;;;9.95;5.50;;;23.30;85.50;;;;;;6070025;23;20042;-90
2022/08/23 07:26:53;;;;;;;;;;;;;;;;;;;;;
2022/08/23 07:32:39;;;;;;;7.32;5.97;;;23.40;85.00;;;;;;6096827;23;20077;-92
2022/08/23 07:38:58;;;;;;;6.78;5.30;;;23.60;84.60;;;;;;6057930;23;20015;-89
2022/08/23 07:42:32;;;;;;;;;;;;;;;;;;;;;
2022/08/23 07:49:15;;;;;;;;;;;;;;;;;;;;;
2022/08/23 07:52:01;;;;;;;;;;;;;;;;;;;;;
2022/08/23 07:55:08;;;;;;;6.13;4.57;;;23.90;84.10;;;;;;6080630;23;20508;-90
2022/08/23 07:57:52;;;;;;;;;;;;;;;;;;;;;
2022/08/23 08:00:59;;;;;;;7.18;5.40;;;24.10;83.70;;;;;;6099813;23;20033;-90
2022/08/23 08:03:52;;;;;;;11.55;6.03;;;24.20;83.50;;;;;;6086519;23;20029;-90
2022/08/23 08:06:51;;;;;;;;;;;;;;;;;;;;;
2022/08/23 08:09:29;;;;;;;;;;;;;;;;;;;;;
2022/08/23 08:12:14;;;;;;;8.52;5.30;;;24.30;82.70;;;;;;6097555;23;20026;-90
2022/08/23 08:15:12;;;;;;;8.40;5.00;;;24.40;82.60;;;;;;6100679;23;20376;-90
2022/08/23 08:18:04;;;;;;;6.38;4.90;;;24.40;82.50;;;;;;6091864;23;20022;-89
2022/08/23 08:20:34;;;;;;;6.78;4.35;;;24.50;82.20;;;;;;6208134;23;20003;-90
2022/08/23 08:23:33;;;;;;;;;;;;;;;;;;;;;
2022/08/23 08:33:15;;;;;;;8.30;5.47;;;24.70;81.40;;;;;;6098311;23;20010;-90
2022/08/23 08:36:42;;;;;;;;;;;;;;;;;;;;;
2022/08/23 08:39:43;;;;;;;7.93;5.68;;;24.80;80.30;;;;;;6116256;23;20017;-91
2022/08/23 08:43:04;;;;;;;8.38;5.63;;;24.90;80.20;;;;;;6090086;23;19999;-90
2022/08/23 08:45:58;;;;;;;;;;;;;;;;;;;;;
2022/08/23 08:48:44;;;;;;;8.90;4.80;;;25.10;80.00;;;;;;6107621;23;20033;-88
2022/08/23 08:52:00;;;;;;;7.80;5.28;;;25.10;79.90;;;;;;6079217;23;20101;-89
2022/08/23 08:55:07;;;;;;;;;;;;;;;;;;;;;
2022/08/23 08:58:02;;;;;;;10.73;5.63;;;25.30;79.20;;;;;;6089767;23;20014;-90
2022/08/23 09:01:33;;;;;;;10.50;5.20;;;25.30;79.20;;;;;;6100749;23;20022;-90
2022/08/23 09:04:40;;;;;;;8.05;4.50;;;25.40;78.90;;;;;;6099974;23;20045;-90
2022/08/23 09:07:40;;;;;;;8.98;4.72;;;25.50;78.90;;;;;;6075999;23;20039;-89
2022/08/23 09:10:46;;;;;;;;;;;;;;;;;;;;;
2022/08/23 09:13:37;;;;;;;8.25;5.75;;;25.60;79.00;;;;;;6070671;23;20026;-91
2022/08/23 09:16:53;;;;;;;9.07;6.25;;;25.70;78.60;;;;;;6067493;23;20086;-88
2022/08/23 09:19:45;;;;;;;8.75;5.28;;;25.80;77.90;;;;;;6077817;23;20003;-88
2022/08/23 09:25:29;;;;;;;;;;;;;;;;;;;;;
2022/08/23 09:28:07;;;;;;;14.77;10.98;;;25.90;77.20;;;;;;6071771;23;20023;-89
2022/08/23 09:31:22;;;;;;;14.95;9.30;;;26.00;77.10;;;;;;6093796;23;20417;-89
2022/08/23 09:34:14;;;;;;;10.60;6.43;;;26.10;77.30;;;;;;6069769;23;20068;-90
2022/08/23 09:43:51;;;;;;;6.43;4.13;;;26.20;75.10;;;;;;6147399;23;20002;-89
2022/08/23 09:49:47;;;;;;;4.70;2.90;;;26.40;75.10;;;;;;6191731;23;20028;-89
2022/08/23 09:53:12;;;;;;;;;;;;;;;;;;;;;
2022/08/23 09:55:57;;;;;;;7.47;3.17;;;26.50;74.70;;;;;;6129131;23;20089;-89
2022/08/23 09:59:52;;;;;;;;;;;;;;;;;;;;;
2022/08/23 10:10:05;;;;;;;6.70;3.40;;;26.80;73.70;;;;;;6026088;23;20008;-90
2022/08/23 10:12:58;;;;;;;7.43;3.70;;;26.90;73.70;;;;;;6042802;23;20023;-89
2022/08/23 10:16:08;;;;;;;7.72;2.97;;;27.00;73.40;;;;;;6044729;23;20026;-90
2022/08/23 10:19:32;;;;;;;;;;;;;;;;;;;;;
2022/08/23 10:22:45;;;;;;;5.55;3.00;;;27.10;72.80;;;;;;6130977;23;20025;-91
2022/08/23 10:25:47;;;;;;;;;;;;;;;;;;;;;
2022/08/23 10:31:44;;;;;;;6.40;3.75;;;27.30;72.20;;;;;;6136707;23;20012;-90
2022/08/23 10:35:08;;;;;;;;;;;;;;;;;;;;;
2022/08/23 10:38:05;;;;;;;10.57;5.40;;;27.40;71.00;;;;;;6118164;23;20002;-88
2022/08/23 10:44:57;;;;;;;5.50;3.30;;;27.40;70.90;;;;;;6112449;23;20086;-92
2022/08/23 10:50:41;;;;;;;3.47;2.20;;;27.60;70.60;;;;;;6048075;23;19999;-91
2022/08/23 10:53:46;;;;;;;3.90;2.20;;;27.60;70.40;;;;;;6032159;23;20023;-87
2022/08/23 10:56:44;;;;;;;5.53;2.30;;;27.70;70.20;;;;;;6022286;23;20504;-90
2022/08/23 10:59:26;;;;;;;4.53;2.35;;;27.80;70.10;;;;;;6122073;23;20034;-89
2022/08/23 11:02:22;;;;;;;4.35;2.20;;;27.80;69.90;;;;;;6074534;23;20014;-89
2022/08/23 11:05:06;;;;;;;3.58;2.08;;;27.90;69.80;;;;;;6098115;23;20011;-91
2022/08/23 11:07:43;;;;;;;;;;;;;;;;;;;;;
2022/08/23 11:11:00;;;;;;;;;;;;;;;;;;;;;
2022/08/23 11:13:53;;;;;;;5.60;2.33;;;28.00;68.30;;;;;;6099752;23;20129;-90
2022/08/23 11:16:46;;;;;;;3.58;1.90;;;28.10;68.00;;;;;;6098071;23;20060;-90
2022/08/23 11:19:53;;;;;;;6.15;2.22;;;28.10;68.00;;;;;;6098092;23;20003;-89
2022/08/23 11:22:40;;;;;;;4.45;2.10;;;28.10;68.00;;;;;;6100364;23;20006;-87
2022/08/23 11:25:47;;;;;;;3.55;2.25;;;28.20;67.90;;;;;;6118034;23;20006;-90
2022/08/23 11:28:48;;;;;;;5.10;2.53;;;28.30;67.50;;;;;;6098991;23;20022;-90
2022/08/23 11:31:59;;;;;;;3.15;1.92;;;28.30;67.50;;;;;;6051927;23;20006;-90
2022/08/23 11:34:51;;;;;;;;;;;28.40;67.20;;;;;;6098671;23;20030;-89
2022/08/23 11:37:25;;;;;;;4.25;1.90;;;28.40;67.20;;;;;;6099082;23;19945;-89
2022/08/23 11:40:35;;;;;;;;;;;;;;;;;;;;;
2022/08/23 11:44:09;;;;;;;3.60;1.83;;;28.50;66.90;;;;;;6094151;23;20357;-89
2022/08/23 11:46:45;;;;;;;5.15;2.50;;;28.50;67.00;;;;;;6103474;23;20025;-89
2022/08/23 11:49:48;;;;;;;4.00;2.05;;;28.50;66.30;;;;;;6100558;23;20048;-90
2022/08/23 11:53:05;;;;;;;4.05;2.00;;;28.60;66.10;;;;;;6099577;23;20077;-90
2022/08/23 11:59:10;;;;;;;5.50;2.20;;;28.70;65.90;;;;;;6131336;23;20002;-90
2022/08/23 12:01:54;;;;;;;4.95;2.33;;;28.70;65.80;;;;;;6106593;23;20018;-89
2022/08/23 12:05:31;;;;;;;;;;;;;;;;;;;;;
2022/08/23 12:08:19;;;;;;;;;;;;;;;;;;;;;
2022/08/23 12:11:30;;;;;;;5.72;2.67;;;28.80;65.50;;;;;;6100350;23;20026;-89
2022/08/23 12:14:40;;;;;;;6.20;2.55;;;28.90;65.80;;;;;;6006341;23;20029;-89
2022/08/23 12:17:24;;;;;;;;;;;;;;;;;;;;;
2022/08/23 12:21:25;;;;;;;;;;;;;;;;;;;;;
2022/08/23 12:26:59;;;;;;;;;;;;;;;;;;;;;
2022/08/23 12:30:03;;;;;;;;;;;;;;;;;;;;;
2022/08/23 12:33:03;;;;;;;;;;;;;;;;;;;;;
2022/08/23 12:36:27;;;;;;;;;;;;;;;;;;;;;
2022/08/23 12:39:33;;;;;;;2.13;1.73;;;29.20;64.60;;;;;;6012015;23;20020;-89
2022/08/23 12:42:39;;;;;;;2.95;1.70;;;29.20;64.40;;;;;;6013675;23;20071;-89
2022/08/23 12:45:25;;;;;;;3.95;2.03;;;29.20;64.10;;;;;;6011536;23;20016;-91
2022/08/23 12:55:06;;;;;;;7.55;5.15;;;29.30;63.90;;;;;;6012941;23;20055;-89
2022/08/23 12:57:59;;;;;;;9.70;6.47;;;29.30;64.90;;;;;;6011302;23;20428;-89
2022/08/23 13:04:21;;;;;;;;;;;;;;;;;;;;;
2022/08/23 13:07:45;;;;;;;3.72;2.15;;;29.30;63.80;;;;;;6120978;23;20025;-90
2022/08/23 13:10:55;;;;;;;;;;;;;;;;;;;;;
2022/08/23 13:14:05;;;;;;;3.33;2.03;;;29.30;63.90;;;;;;6107481;23;20030;-91
2022/08/23 13:19:59;;;;;;;;;;;29.30;64.20;;;;;;6061781;23;20002;-89
2022/08/23 13:26:48;;;;;;;;;;;;;;;;;;;;;
2022/08/23 13:29:32;;;;;;;3.60;1.88;;;29.30;63.60;;;;;;6100500;23;20038;-89
2022/08/23 13:33:08;;;;;;;4.47;2.00;;;29.30;63.70;;;;;;6098102;23;19998;-89
2022/08/23 13:39:37;;;;;;;4.00;2.08;;;29.40;63.70;;;;;;6106006;23;20014;-89
2022/08/23 13:42:31;;;;;;;;;;;;;;;;;;;;;
2022/08/23 13:45:22;;;;;;;2.67;1.80;;;29.40;64.10;;;;;;6071054;23;20039;-89
2022/08/23 13:51:47;;;;;;;2.17;1.45;;;29.50;62.80;;;;;;6098556;23;20003;-89
2022/08/23 13:54:25;;;;;;;2.75;1.50;;;29.60;62.50;;;;;;6070595;23;20010;-88
2022/08/23 13:57:32;;;;;;;3.10;1.55;;;29.60;62.90;;;;;;6070004;23;20382;-90
2022/08/23 14:00:27;;;;;;;;;;;;;;;;;;;;;
2022/08/23 14:06:29;;;;;;;;;;;;;;;;;;;;;
2022/08/23 14:09:07;;;;;;;2.08;1.45;;;29.80;62.50;;;;;;5960022;23;20092;-90
2022/08/23 14:11:50;;;;;;;;;;;;;;;;;;;;;
2022/08/23 14:14:52;;;;;;;2.72;1.52;;;29.90;62.80;;;;;;6070085;23;20558;-90
2022/08/23 14:18:03;;;;;;;1.90;1.40;;;30.00;62.90;;;;;;6070387;23;20400;-89
2022/08/23 14:21:03;;;;;;;;;;;;;;;;;;;;;
2022/08/23 14:23:39;;;;;;;;;;;;;;;;;;;;;
2022/08/23 14:26:39;;;;;;;;;;;;;;;;;;;;;
2022/08/23 14:29:29;;;;;;;;;;;;;;;;;;;;;
2022/08/23 14:32:37;;;;;;;;;;;;;;;;;;;;;
2022/08/23 14:39:04;;;;;;;2.05;1.25;;;30.00;62.30;;;;;;5965506;23;20059;-89
2022/08/23 14:41:35;;;;;;;1.90;1.30;;;30.00;62.00;;;;;;5964607;23;20079;-90
2022/08/23 14:44:19;;;;;;;;;;;;;;;;;;;;;
2022/08/23 14:47:10;;;;;;;4.28;2.92;;;30.00;61.80;;;;;;5984126;24;20091;-90
2022/08/23 14:49:47;;;;;;;4.93;2.33;;;30.00;62.00;;;;;;6038870;23;20011;-90
2022/08/23 14:52:35;;;;;;;;;;;;;;;;;;;;;
2022/08/23 14:55:54;;;;;;;;;;;;;;;;;;;;;
2022/08/23 14:58:40;;;;;;;;;;;;;;;;;;;;;
2022/08/23 15:01:54;;;;;;;3.17;1.42;;;30.00;61.70;;;;;;6041665;23;20050;-89
2022/08/23 15:04:38;;;;;;;2.80;2.40;;;30.00;61.70;;;;;;6044203;23;20023;-90
2022/08/23 16:33:01;;;;;;;;;;;;;;;;;;;;;
2022/08/23 16:36:33;;;;;;;;;;;;;;;;;;;;;
2022/08/23 16:43:53;;;;;;;2.03;1.08;;;29.60;61.60;;;;;;5955343;23;20012;-87
2022/08/23 16:46:00;;;;;;;1.90;1.00;;;29.50;61.30;;;;;;6073813;23;20072;-86
2022/08/23 16:48:26;;;;;;;2.85;1.30;;;29.50;61.60;;;;;;6251125;22;20425;-87
2022/08/23 16:50:54;;;;;;;2.08;1.25;;;29.50;61.70;;;;;;6261538;22;20014;-87
2022/08/23 16:53:20;;;;;;;1.80;0.90;;;29.50;61.60;;;;;;6286533;22;20007;-84
2022/08/23 16:55:46;;;;;;;3.88;2.90;;;29.50;61.50;;;;;;6313257;22;20071;-86
2022/08/23 16:58:13;;;;;;;13.38;11.98;;;29.50;61.70;;;;;;6285051;22;20052;-85
2022/08/23 17:00:39;;;;;;;10.75;9.18;;;29.40;62.00;;;;;;6280122;22;20047;-84
2022/08/23 17:03:06;;;;;;;6.40;5.45;;;29.50;62.30;;;;;;6281659;22;20035;-85
2022/08/23 17:05:33;;;;;;;5.38;3.67;;;29.40;62.50;;;;;;6279720;22;20087;-86
2022/08/23 17:08:00;;;;;;;4.10;2.25;;;29.40;62.50;;;;;;6280467;22;20083;-86
2022/08/23 17:10:33;;;;;;;1.98;1.50;;;29.40;62.30;;;;;;6280299;22;19996;-86
2022/08/23 17:13:00;;;;;;;1.58;1.13;;;29.40;62.10;;;;;;6281274;22;20035;-87
2022/08/23 17:15:29;;;;;;;2.42;1.10;;;29.40;62.20;;;;;;6254738;22;20080;-86
2022/08/23 17:17:56;;;;;;;2.45;1.33;;;29.40;62.40;;;;;;6279675;22;20414;-84
2022/08/23 17:20:25;;;;;;;2.45;1.00;;;29.30;62.60;;;;;;6280943;22;20003;-87
2022/08/23 17:22:52;;;;;;;6.30;5.20;;;29.30;62.70;;;;;;6281742;22;20011;-85
2022/08/23 17:25:18;;;;;;;4.65;3.63;;;29.30;62.80;;;;;;6279616;22;20311;-86
2022/08/23 17:27:46;;;;;;;4.20;3.25;;;29.30;63.00;;;;;;6279344;22;20433;-86
2022/08/23 17:30:19;;;;;;;4.10;2.00;;;29.30;63.30;;;;;;6280399;22;20000;-86
2022/08/23 17:32:49;;;;;;;2.28;1.70;;;29.20;63.30;;;;;;6281726;22;20007;-85
2022/08/23 17:35:22;;;;;;;2.22;1.20;;;29.20;63.20;;;;;;6255223;22;20007;-86
2022/08/23 17:37:55;;;;;;;2.15;1.20;;;29.20;63.60;;;;;;6282153;22;20003;-86
2022/08/23 17:40:27;;;;;;;2.10;1.00;;;29.20;63.70;;;;;;6283087;22;19999;-87
2022/08/23 17:42:59;;;;;;;1.92;1.10;;;29.10;63.60;;;;;;6300665;22;20005;-86
2022/08/23 17:45:31;;;;;;;2.25;1.17;;;29.10;63.60;;;;;;6303975;22;20047;-89
2022/08/23 17:47:56;;;;;;;2.92;1.20;;;29.10;63.70;;;;;;6304939;22;20008;-85
2022/08/23 17:50:24;;;;;;;3.08;1.23;;;29.00;63.50;;;;;;6273513;22;20008;-88
2022/08/23 17:52:52;;;;;;;1.85;1.10;;;29.00;63.80;;;;;;6288986;22;20000;-87
2022/08/23 17:55:20;;;;;;;1.90;1.10;;;28.90;63.80;;;;;;6282426;22;20014;-86
2022/08/23 17:57:46;;;;;;;2.25;0.90;;;28.90;64.10;;;;;;6280784;22;20023;-86
2022/08/23 18:00:13;;;;;;;1.52;0.88;;;28.90;64.30;;;;;;6253112;22;20015;-86
2022/08/23 18:02:42;;;;;;;3.47;1.40;;;28.90;64.60;;;;;;6279367;22;19996;-86
2022/08/23 18:05:09;;;;;;;3.35;1.13;;;28.80;64.70;;;;;;6280057;22;20012;-87
2022/08/23 18:07:35;;;;;;;3.25;1.25;;;28.80;64.90;;;;;;6279471;22;20000;-85
2022/08/23 18:10:06;;;;;;;2.78;1.10;;;28.80;65.10;;;;;;6279880;22;20000;-86
2022/08/23 18:12:34;;;;;;;2.13;1.48;;;28.70;65.10;;;;;;6279624;22;20007;-86
2022/08/23 18:15:03;;;;;;;2.60;1.25;;;28.70;65.30;;;;;;6281314;22;20031;-86
2022/08/23 18:17:31;;;;;;;2.55;1.27;;;28.60;65.20;;;;;;6277987;22;20012;-85
2022/08/23 18:19:59;;;;;;;2.83;1.58;;;28.60;65.40;;;;;;6279563;22;20000;-87
2022/08/23 18:22:27;;;;;;;2.83;1.27;;;28.50;65.60;;;;;;6278579;22;20023;-87
2022/08/23 18:24:56;;;;;;;3.80;1.30;;;28.50;65.90;;;;;;6279363;22;20008;-87
2022/08/23 18:30:12;;;;;;;4.47;1.20;;;28.40;66.30;;;;;;6279006;22;20472;-87
2022/08/23 18:32:42;;;;;;;6.28;1.25;;;28.40;66.70;;;;;;6279689;22;20003;-88
2022/08/23 18:35:10;;;;;;;;;;;28.30;66.90;;;;;;6279359;22;20004;-86
2022/08/23 18:37:37;;;;;;;4.05;1.40;;;28.30;67.10;;;;;;6280164;22;19903;-85
2022/08/23 18:40:08;;;;;;;4.18;1.25;;;28.20;67.50;;;;;;6253725;22;20014;-87
2022/08/23 18:42:34;;;;;;;;;;;28.10;67.70;;;;;;6280841;22;20000;-86
2022/08/23 18:45:00;;;;;;;2.50;1.15;;;28.10;67.80;;;;;;6280133;22;20225;-87
2022/08/23 18:47:26;;;;;;;4.53;1.50;;;28.00;67.90;;;;;;6228715;22;20406;-87
2022/08/23 18:49:52;;;;;;;2.72;1.25;;;28.00;68.30;;;;;;6281316;22;20006;-86
2022/08/23 18:52:18;;;;;;;2.30;1.35;;;27.90;68.30;;;;;;6278457;22;20004;-85
2022/08/23 18:54:43;;;;;;;3.90;1.55;;;27.90;68.40;;;;;;6252680;22;20061;-84
2022/08/23 18:57:10;;;;;;;2.47;1.20;;;27.80;68.40;;;;;;6278888;22;20011;-87
2022/08/23 18:59:36;;;;;;;2.30;1.35;;;27.80;68.70;;;;;;6281185;22;20003;-84
2022/08/23 19:02:02;;;;;;;2.92;1.52;;;27.70;69.10;;;;;;6284587;22;20019;-86
2022/08/23 19:04:29;;;;;;;4.72;1.60;;;27.60;69.30;;;;;;6283417;22;20015;-86
2022/08/23 19:07:54;;;;;;;;;;;;;;;;;;;;;
2022/08/23 19:11:11;;;;;;;2.00;1.42;;;27.60;70.00;;;;;;6316269;22;20034;-90
2022/08/23 19:14:09;;;;;;;;;;;;;;;;;;;;;
2022/08/23 19:20:50;;;;;;;4.10;1.70;;;27.40;70.20;;;;;;6190358;23;20005;-91
2022/08/23 19:23:42;;;;;;;;;;;;;;;;;;;;;
2022/08/23 19:27:02;;;;;;;;;;;;;;;;;;;;;
2022/08/23 19:30:07;;;;;;;;;;;;;;;;;;;;;
2022/08/23 19:32:58;;;;;;;3.70;1.52;;;27.10;71.50;;;;;;6295631;22;20031;-92
2022/08/23 19:35:35;;;;;;;;;;;27.00;71.60;;;;;;6261980;22;20007;-90
2022/08/23 19:38:47;;;;;;;;;;;;;;;;;;;;;
2022/08/23 19:41:25;;;;;;;4.13;2.03;;;26.90;71.60;;;;;;6293151;22;20023;-90
2022/08/23 19:44:36;;;;;;;;;;;;;;;;;;;;;
2022/08/23 19:47:11;;;;;;;2.85;1.80;;;26.80;71.80;;;;;;6267242;22;20031;-91
2022/08/23 19:57:42;;;;;;;3.28;2.20;;;26.70;72.10;;;;;;6290413;22;20072;-91
2022/08/23 20:13:28;;;;;;;;;;;;;;;;;;;;;
2022/08/23 20:17:08;;;;;;;;;;;;;;;;;;;;;
2022/08/23 20:20:16;;;;;;;;;;;;;;;;;;;;;
2022/08/23 20:26:17;;;;;;;9.95;3.03;;;26.30;75.00;;;;;;6287076;22;20065;-90
2022/08/23 20:32:59;;;;;;;5.53;3.03;;;26.10;76.60;;;;;;6277314;22;20389;-91
2022/08/23 20:35:52;;;;;;;;;;;;;;;;;;;;;
2022/08/23 20:38:57;;;;;;;;;;;;;;;;;;;;;
2022/08/23 20:41:37;;;;;;;6.18;3.08;;;25.90;78.20;;;;;;6194856;23;20024;-91
2022/08/23 20:44:54;;;;;;;6.93;3.60;;;25.90;78.50;;;;;;6287574;22;20050;-91
2022/08/23 20:48:22;;;;;;;;;;;;;;;;;;;;;
2022/08/23 20:51:40;;;;;;;6.72;4.00;;;25.80;79.00;;;;;;6285418;22;20035;-90
2022/08/23 20:54:52;;;;;;;6.07;3.92;;;25.70;79.30;;;;;;6284404;22;20433;-91
2022/08/23 20:57:30;;;;;;;5.32;4.00;;;25.70;79.50;;;;;;6252529;23;20022;-92
2022/08/23 21:03:36;;;;;;;8.38;4.32;;;25.70;79.70;;;;;;6220187;23;20013;-91
2022/08/23 21:06:48;;;;;;;;;;;;;;;;;;;;;
2022/08/23 21:19:43;;;;;;;;;;;;;;;;;;;;;
2022/08/23 21:22:39;;;;;;;;;;;;;;;;;;;;;
2022/08/23 21:25:50;;;;;;;7.55;4.43;;;25.60;80.60;;;;;;6216137;23;20012;-91
2022/08/23 21:32:52;;;;;;;6.63;4.80;;;25.60;80.50;;;;;;6216546;23;20012;-91
2022/08/23 21:41:54;;;;;;;6.75;4.75;;;25.60;80.60;;;;;;6023577;23;20012;-90
2022/08/23 21:44:52;;;;;;;;;;;;;;;;;;;;;
2022/08/23 21:56:54;;;;;;;;;;;;;;;;;;;;;
2022/08/23 21:59:57;;;;;;;;;;;;;;;;;;;;;
2022/08/23 22:03:08;;;;;;;;;;;;;;;;;;;;;
2022/08/23 22:06:00;;;;;;;5.85;4.00;;;25.60;81.00;;;;;;6249350;23;20552;-91
2022/08/23 22:08:52;;;;;;;5.68;4.05;;;25.60;81.40;;;;;;6251322;23;20038;-91
2022/08/23 22:11:52;;;;;;;5.78;3.83;;;25.60;81.40;;;;;;6271533;23;20012;-91
2022/08/23 22:15:06;;;;;;;7.30;4.38;;;25.50;81.30;;;;;;6268679;22;20023;-90
2022/08/23 22:24:45;;;;;;;;;;;;;;;;;;;;;
2022/08/23 22:31:01;;;;;;;;;;;;;;;;;;;;;
2022/08/23 22:33:55;;;;;;;;;;;;;;;;;;;;;
2022/08/23 22:39:49;;;;;;;;;;;;;;;;;;;;;
2022/08/23 22:43:20;;;;;;;;;;;;;;;;;;;;;
2022/08/23 22:46:40;;;;;;;;;;;;;;;;;;;;;
2022/08/23 22:49:31;;;;;;;;;;;;;;;;;;;;;
2022/08/23 22:55:31;;;;;;;5.65;3.65;;;25.00;83.00;;;;;;6073208;23;19941;-90
2022/08/23 22:58:57;;;;;;;;;;;;;;;;;;;;;
2022/08/23 23:01:56;;;;;;;;;;;;;;;;;;;;;
2022/08/23 23:11:17;;;;;;;;;;;;;;;;;;;;;
2022/08/23 23:14:41;;;;;;;;;;;;;;;;;;;;;
2022/08/23 23:20:46;;;;;;;4.20;3.50;;;24.60;84.10;;;;;;6253158;23;20146;-90
2022/08/23 23:23:50;;;;;;;4.93;3.28;;;24.60;84.10;;;;;;6198910;23;20011;-90
2022/08/23 23:26:39;;;;;;;;;;;;;;;;;;;;;
2022/08/23 23:32:52;;;;;;;5.55;3.20;;;24.50;84.60;;;;;;6232688;23;20010;-90
2022/08/23 23:39:14;;;;;;;5.13;3.65;;;24.30;85.40;;;;;;6254378;23;20004;-92
2022/08/23 23:42:13;;;;;;;;;;;;;;;;;;;;;
2022/08/23 23:54:29;;;;;;;;;;;;;;;;;;;;;
